Yelm, WA (98597)

2:55 PM PDT on August 22, 2014 (GMT -0700)
Mill Pond Estates | Change Station
CLOSE
Current Station
Personal Weather Station
Location: Yelm, WA
Elevation: 345 ft
Nearby Weather Stations

Elev 345 ft 46.94 °N, 122.61 °W | Updated 6 seconds ago

Clear
Clear
73.7 °F
Feels Like 77 °F
N
4.0
Wind Variable Wind from NNE
Gusts 6.0 mph

Today
High -- | Low -- °F
--% Chance of Precip.
Yesterday
High -- | Low -- °F
Precip. -- in
6:16 AM 8:08 PM
Waning Crescent, 6% visible
Pressure 30.06 in
Visibility 10.0 miles
Clouds Clear
Heat Index 77 °F
Dew Point 56 °F
Humidity 54%
Rainfall 0.00 in
Snow Depth Not available.
UV 8 out of 12
Pollen 3.00 out of 12
Air Quality Not available.
Flu Activity Not available.
METAR KGRF 222058Z AUTO 33007KT 10SM CLR 23/12 A3005 RMK AO2 SLP179 T02270117 55004 PWINO $

More Conditions Fewer Conditions

Pressure 30.06 in
Visibility 10.0 miles
Clouds Clear
Heat Index 77 °F
Dew Point 56 °F
Humidity 54%
Rainfall 0.00 in
Snow Depth Not available.
UV 8 out of 12
Pollen 3.00 out of 12
Air Quality Not available.
Flu Activity Not available.
METAR KGRF 222058Z AUTO 33007KT 10SM CLR 23/12 A3005 RMK AO2 SLP179 T02270117 55004 PWINO $

More Conditions Fewer Conditions

10-Day Weather Forecast

Almanac

Astronomy

Aug. 22, 2014 Rise Set
Actual Time 6:16 AM PDT 8:08 PM PDT
Civil Twilight 5:44 AM PDT 8:40 PM PDT
Nautical Twilight 5:04 AM PDT 9:20 PM PDT
Astronomical Twilight 4:20 AM PDT 10:03 PM PDT
Moon 3:39 AM PDT 6:23 PM PDT
Length of Visible Light 14h 56m
Length of Day
13h 51m
Tomorrow will be 3m 8s shorter.
Waning Crescent, 6% of the Moon is Illuminated
Today
Waning Crescent
Aug 25
New
Sep 2
First Quarter
Sep 8
Full
Sep 15
Last Quarter

Today's Extremes

State Highs State Lows

Community

WunderPhotos

Upload Photos

1,746,260 photos uploaded!

Nearby

Snow Depth

Station Depth Elevation
Burnt Mountain 0 in 4200 ft
Spirit Lake 0 in 3120 ft
Lone Pine 0 in 3800 ft
Meadows Pass 0 in 3500 ft
Stampede Pass 1 in 3860 ft

Earthquake Activity

City Distance Mag. Time & Date
No recent earthquake activity has been reported nearby.
Minimum magnitude displayed is 2.5.

Coastal Water Temperatures

Place Temperature
Port Townsend, WA 54.0 °F
Seattle, WA 55.9 °F
Friday Harbor, WA 52.0 °F
Tacoma, WA 55.9 °F

Nearby Weather Stations